createdAt,value
2017-04-14T00:00:11.724Z,8.62
2017-04-14T00:01:11.374Z,8.66
2017-04-14T00:02:11.665Z,8.7
2017-04-14T00:03:11.333Z,8.61
2017-04-14T00:04:11.634Z,8.77
2017-04-14T00:05:11.612Z,8.75
2017-04-14T00:06:11.583Z,8.79
2017-04-14T00:07:11.261Z,8.84
2017-04-14T00:08:11.550Z,8.84
2017-04-14T00:09:11.214Z,8.95
2017-04-14T00:10:10.883Z,9.02
2017-04-14T00:11:11.482Z,8.87
2017-04-14T00:12:11.159Z,8.97
2017-04-14T00:13:11.429Z,8.91
2017-04-14T00:14:10.793Z,9.02
2017-04-14T00:15:11.405Z,8.93
2017-04-14T00:16:11.042Z,8.97
2017-04-14T00:17:11.031Z,8.93
2017-04-14T00:18:11.009Z,8.91
2017-04-14T00:19:11.315Z,8.94
2017-04-14T00:20:11.272Z,8.9
2017-04-14T00:21:10.942Z,8.84
2017-04-14T00:22:11.231Z,8.67
2017-04-14T00:23:11.204Z,8.66
2017-04-14T00:24:11.183Z,8.48
2017-04-14T00:25:10.854Z,8.5
2017-04-14T00:26:10.831Z,8.55
2017-04-14T00:27:11.111Z,8.52
2017-04-14T00:28:10.791Z,8.45
2017-04-14T00:29:10.762Z,8.57
2017-04-14T00:30:10.744Z,8.37
2017-04-14T00:31:11.031Z,8.36
2017-04-14T00:32:11.005Z,8.22
2017-04-14T00:33:10.674Z,8.29
2017-04-14T00:34:10.950Z,8.25
2017-04-14T00:35:10.952Z,8.4
2017-04-14T00:36:10.600Z,8.43
2017-04-14T00:37:10.905Z,8.51
2017-04-14T00:38:10.564Z,8.57
2017-04-14T00:39:10.844Z,8.62
2017-04-14T00:40:10.524Z,8.67
2017-04-14T00:41:10.827Z,8.65
2017-04-14T00:42:10.174Z,8.62
2017-04-14T00:43:10.773Z,8.66
2017-04-14T00:44:10.437Z,8.66
2017-04-14T00:45:10.732Z,8.57
2017-04-14T00:46:10.384Z,8.55
2017-04-14T00:47:10.682Z,8.52
2017-04-14T00:48:10.654Z,8.57
2017-04-14T00:49:10.362Z,8.54
2017-04-14T00:50:10.603Z,8.4
2017-04-14T00:51:10.579Z,8.33
2017-04-14T00:52:10.257Z,8.5
2017-04-14T00:53:10.306Z,8.52
2017-04-14T00:54:10.271Z,8.5
2017-04-14T00:55:10.497Z,8.33
2017-04-14T00:56:10.203Z,8.21
2017-04-14T00:57:10.164Z,8.29
2017-04-14T00:58:10.138Z,8.37
2017-04-14T00:59:09.859Z,8.24
2017-04-14T01:00:09.776Z,8.21
2017-04-14T01:01:10.060Z,8.4
2017-04-14T01:02:10.354Z,8.33
2017-04-14T01:03:09.810Z,8.33
2017-04-14T01:04:09.997Z,8.32
2017-04-14T01:05:09.971Z,8.39
2017-04-14T01:06:10.273Z,8.52
2017-04-14T01:07:10.029Z,8.45
2017-04-14T01:08:09.919Z,8.42
2017-04-14T01:09:10.015Z,8.51
2017-04-14T01:10:09.883Z,8.55
2017-04-14T01:11:09.843Z,8.52
2017-04-14T01:12:09.814Z,8.55
2017-04-14T01:13:09.795Z,8.54
2017-04-14T01:14:10.081Z,8.5
2017-04-14T01:15:10.055Z,8.37
2017-04-14T01:16:09.734Z,8.36
2017-04-14T01:17:10.022Z,8.37
2017-04-14T01:18:09.995Z,8.45
2017-04-14T01:19:09.693Z,8.42
2017-04-14T01:20:09.944Z,8.42
2017-04-14T01:21:09.613Z,8.4
2017-04-14T01:22:09.913Z,8.42
2017-04-14T01:23:09.872Z,8.4
2017-04-14T01:24:09.552Z,8.34
2017-04-14T01:25:09.854Z,8.15
2017-04-14T01:26:09.833Z,8.15
2017-04-14T01:27:09.802Z,8.04
2017-04-14T01:28:09.783Z,8
2017-04-14T01:29:09.742Z,8.09
2017-04-14T01:30:09.752Z,8.04
2017-04-14T01:31:09.705Z,8.04
2017-04-14T01:32:09.680Z,7.78
2017-04-14T01:33:09.355Z,7.67
2017-04-14T01:34:09.635Z,7.76
2017-04-14T01:35:09.610Z,7.68
2017-04-14T01:36:09.611Z,7.68
2017-04-14T01:37:09.258Z,7.67
2017-04-14T01:38:08.928Z,7.72
2017-04-14T01:39:09.515Z,7.76
2017-04-14T01:40:09.242Z,7.72
2017-04-14T01:41:09.542Z,7.75
2017-04-14T01:42:09.461Z,7.55
2017-04-14T01:43:09.442Z,7.64
2017-04-14T01:44:09.423Z,7.75
2017-04-14T01:45:08.773Z,7.67
2017-04-14T01:46:09.071Z,7.64
2017-04-14T01:47:09.412Z,7.64
2017-04-14T01:48:09.334Z,7.57
2017-04-14T01:49:08.990Z,7.56
2017-04-14T01:50:08.991Z,7.47
2017-04-14T01:51:08.957Z,7.44
2017-04-14T01:52:08.916Z,7.49
2017-04-14T01:53:09.241Z,7.57
2017-04-14T01:54:08.570Z,7.63
2017-04-14T01:55:08.648Z,7.72
2017-04-14T01:56:08.824Z,7.64
2017-04-14T01:57:08.511Z,7.55
2017-04-14T01:58:08.775Z,7.57
2017-04-14T01:59:09.061Z,7.56
2017-04-14T02:00:08.736Z,7.6
2017-04-14T02:01:08.721Z,7.56
2017-04-14T02:02:08.699Z,7.59
2017-04-14T02:03:08.667Z,7.53
2017-04-14T02:04:08.652Z,7.47
2017-04-14T02:05:08.628Z,7.6
2017-04-14T02:06:08.954Z,7.44
2017-04-14T02:07:08.581Z,7.34
2017-04-14T02:08:08.860Z,7.26
2017-04-14T02:09:08.862Z,7.27
2017-04-14T02:10:08.522Z,7.17
2017-04-14T02:11:08.790Z,7.35
2017-04-14T02:12:08.525Z,7.21
2017-04-14T02:13:08.791Z,7.2
2017-04-14T02:14:08.442Z,7.29
2017-04-14T02:15:08.901Z,7.38
2017-04-14T02:16:08.683Z,7.3
2017-04-14T02:17:08.680Z,7.34
2017-04-14T02:18:08.410Z,7.23
2017-04-14T02:19:08.313Z,7.3
2017-04-14T02:20:08.691Z,7.42
2017-04-14T02:21:07.950Z,7.48
2017-04-14T02:22:07.951Z,7.64
2017-04-14T02:23:08.631Z,7.75
2017-04-14T02:24:08.601Z,7.64
2017-04-14T02:25:08.573Z,7.41
2017-04-14T02:26:08.512Z,7.41
2017-04-14T02:27:07.822Z,7.45
2017-04-14T02:28:08.471Z,7.41
2017-04-14T02:29:08.411Z,7.53
2017-04-14T02:30:08.171Z,7.68
2017-04-14T02:31:07.718Z,7.62
2017-04-14T02:32:08.010Z,7.7
2017-04-14T02:33:07.681Z,7.64
2017-04-14T02:34:08.010Z,7.7
2017-04-14T02:35:08.250Z,7.55
2017-04-14T02:36:08.360Z,7.53
2017-04-14T02:37:08.274Z,7.45
2017-04-14T02:38:07.891Z,7.34
2017-04-14T02:39:07.921Z,7.21
2017-04-14T02:40:08.240Z,7.24
2017-04-14T02:41:08.120Z,7.19
2017-04-14T02:42:08.126Z,7.16
2017-04-14T02:43:08.121Z,7.05
2017-04-14T02:44:08.110Z,7.09
2017-04-14T02:45:07.722Z,7.23
2017-04-14T02:46:07.680Z,7.23
2017-04-14T02:47:08.123Z,7.26
2017-04-14T02:48:07.651Z,7.2
2017-04-14T02:49:07.612Z,7.19
2017-04-14T02:50:08.091Z,7.26
2017-04-14T02:51:07.571Z,7.21
2017-04-14T02:52:07.241Z,7.34
2017-04-14T02:53:07.843Z,7.26
2017-04-14T02:54:07.503Z,7.17
2017-04-14T02:55:07.490Z,7.16
2017-04-14T02:56:07.761Z,7.2
2017-04-14T02:57:07.765Z,7.19
2017-04-14T02:58:07.414Z,7.12
2017-04-14T02:59:07.692Z,7.09
2017-04-14T03:00:07.777Z,7.16
2017-04-14T03:01:07.365Z,7.16
2017-04-14T03:02:07.633Z,7.05
2017-04-14T03:03:07.601Z,7.05
2017-04-14T03:04:07.583Z,7.08
2017-04-14T03:05:07.562Z,7.16
2017-04-14T03:06:07.526Z,7.2
2017-04-14T03:07:07.524Z,7.24
2017-04-14T03:08:07.482Z,7.11
2017-04-14T03:09:07.158Z,7.14
2017-04-14T03:10:07.437Z,7.12
2017-04-14T03:11:07.424Z,7.21
2017-04-14T03:12:07.394Z,6.99
2017-04-14T03:13:07.387Z,7.06
2017-04-14T03:14:07.350Z,6.81
2017-04-14T03:15:07.324Z,6.87
2017-04-14T03:16:07.303Z,7.04
2017-04-14T03:17:07.289Z,7.14
2017-04-14T03:18:07.257Z,7.01
2017-04-14T03:19:06.918Z,6.96
2017-04-14T03:20:06.921Z,6.9
2017-04-14T03:21:06.876Z,6.93
2017-04-14T03:22:06.863Z,6.88
2017-04-14T03:23:06.843Z,6.98
2017-04-14T03:24:06.805Z,7.06
2017-04-14T03:25:07.092Z,6.99
2017-04-14T03:26:06.811Z,7.05
2017-04-14T03:27:07.052Z,7.11
2017-04-14T03:28:06.732Z,7.11
2017-04-14T03:29:07.005Z,7.14
2017-04-14T03:30:06.981Z,7.14
2017-04-14T03:31:06.661Z,7.09
2017-04-14T03:32:06.932Z,7.12
2017-04-14T03:33:06.304Z,7.23
2017-04-14T03:34:06.895Z,7.29
2017-04-14T03:35:06.543Z,7.24
2017-04-14T03:36:06.842Z,7.14
2017-04-14T03:37:06.811Z,7.05
2017-04-14T03:38:06.489Z,6.99
2017-04-14T03:39:06.462Z,6.93
2017-04-14T03:40:06.442Z,6.8
2017-04-14T03:41:06.413Z,6.84
2017-04-14T03:42:06.417Z,6.9
2017-04-14T03:43:06.392Z,7.05
2017-04-14T03:44:06.666Z,6.93
2017-04-14T03:45:06.432Z,7.08
2017-04-14T03:46:06.043Z,7.09
2017-04-14T03:47:06.591Z,7.05
2017-04-14T03:48:06.263Z,7.09
2017-04-14T03:49:06.531Z,7.08
2017-04-14T03:50:06.535Z,7.11
2017-04-14T03:51:06.193Z,7.08
2017-04-14T03:52:06.457Z,7.08
2017-04-14T03:53:05.833Z,7.16
2017-04-14T03:54:06.423Z,7.09
2017-04-14T03:55:05.804Z,7.2
2017-04-14T03:56:06.383Z,7.09
2017-04-14T03:57:05.733Z,7.02
2017-04-14T03:58:06.343Z,7.08
2017-04-14T03:59:06.014Z,7.01
2017-04-14T04:00:06.345Z,7.06
2017-04-14T04:01:06.272Z,7.09
2017-04-14T04:02:06.343Z,7.16
2017-04-14T04:03:06.222Z,7.01
2017-04-14T04:04:06.189Z,6.88
2017-04-14T04:05:05.865Z,6.81
2017-04-14T04:06:05.841Z,6.86
2017-04-14T04:07:06.112Z,6.83
2017-04-14T04:08:05.892Z,6.65
2017-04-14T04:09:05.762Z,6.32
2017-04-14T04:10:06.162Z,6.36
2017-04-14T04:11:05.715Z,6.45
2017-04-14T04:12:05.392Z,6.62
2017-04-14T04:13:05.362Z,6.73
2017-04-14T04:14:05.652Z,6.72
2017-04-14T04:15:05.312Z,6.7
2017-04-14T04:16:05.665Z,6.78
2017-04-14T04:17:05.584Z,6.72
2017-04-14T04:18:05.871Z,6.8
2017-04-14T04:19:05.533Z,6.73
2017-04-14T04:20:05.193Z,6.86
2017-04-14T04:21:05.495Z,6.81
2017-04-14T04:22:05.772Z,6.69
2017-04-14T04:23:05.844Z,6.57
2017-04-14T04:24:05.721Z,6.59
2017-04-14T04:25:05.793Z,6.45
2017-04-14T04:26:05.698Z,6.37
2017-04-14T04:27:05.669Z,6.36
2017-04-14T04:28:05.342Z,6.51
2017-04-14T04:29:05.682Z,6.55
2017-04-14T04:30:05.585Z,6.6
2017-04-14T04:31:05.563Z,6.4
2017-04-14T04:32:05.530Z,6.33
2017-04-14T04:33:05.203Z,6.35
2017-04-14T04:34:05.193Z,6.35
2017-04-14T04:35:05.152Z,6.32
2017-04-14T04:36:05.143Z,6.27
2017-04-14T04:37:05.421Z,6.33
2017-04-14T04:38:05.411Z,6.4
2017-04-14T04:39:05.063Z,6.48
2017-04-14T04:40:05.055Z,6.59
2017-04-14T04:41:05.326Z,6.6
2017-04-14T04:42:05.315Z,6.6
2017-04-14T04:43:04.965Z,6.68
2017-04-14T04:44:05.243Z,6.77
2017-04-14T04:45:05.220Z,6.8
2017-04-14T04:46:04.898Z,6.8
2017-04-14T04:47:04.873Z,6.78
2017-04-14T04:48:05.173Z,6.81
2017-04-14T04:49:04.885Z,6.75
2017-04-14T04:50:04.825Z,6.7
2017-04-14T04:51:04.903Z,6.65
2017-04-14T04:52:05.065Z,6.83
2017-04-14T04:53:05.041Z,6.81
2017-04-14T04:54:04.409Z,6.9
2017-04-14T04:55:05.002Z,6.91
2017-04-14T04:56:04.675Z,6.83
2017-04-14T04:57:04.953Z,6.77
2017-04-14T04:58:04.927Z,6.75
2017-04-14T04:59:04.920Z,6.8
2017-04-14T05:00:04.902Z,6.77
2017-04-14T05:01:04.553Z,6.72
2017-04-14T05:02:04.533Z,6.7
2017-04-14T05:03:04.533Z,6.73
2017-04-14T05:04:04.478Z,6.78
2017-04-14T05:05:04.457Z,6.69
2017-04-14T05:06:04.429Z,6.6
2017-04-14T05:07:04.719Z,6.45
2017-04-14T05:08:04.104Z,6.43
2017-04-14T05:09:04.681Z,6.59
2017-04-14T05:10:04.650Z,6.69
2017-04-14T05:11:04.643Z,6.65
2017-04-14T05:12:04.596Z,6.7
2017-04-14T05:13:04.273Z,6.77
2017-04-14T05:14:04.242Z,6.68
2017-04-14T05:15:04.523Z,6.68
2017-04-14T05:16:03.894Z,6.62
2017-04-14T05:17:04.482Z,6.59
2017-04-14T05:18:04.153Z,6.52
2017-04-14T05:19:04.183Z,6.51
2017-04-14T05:20:04.202Z,6.44
2017-04-14T05:21:04.387Z,6.3
2017-04-14T05:22:04.142Z,6.37
2017-04-14T05:23:04.053Z,6.43
2017-04-14T05:24:04.041Z,6.65
2017-04-14T05:25:04.293Z,6.72
2017-04-14T05:26:04.264Z,6.75
2017-04-14T05:27:03.743Z,6.78
2017-04-14T05:28:03.925Z,6.83
2017-04-14T05:29:04.052Z,6.83
2017-04-14T05:30:03.937Z,6.88
2017-04-14T05:31:03.613Z,6.87
2017-04-14T05:32:04.122Z,6.91
2017-04-14T05:33:03.815Z,6.87
2017-04-14T05:34:04.085Z,6.8
2017-04-14T05:35:04.052Z,6.83
2017-04-14T05:36:03.750Z,6.73
2017-04-14T05:37:03.714Z,6.86
2017-04-14T05:38:04.004Z,6.9
2017-04-14T05:39:03.673Z,6.91
2017-04-14T05:40:03.945Z,6.91
2017-04-14T05:41:03.930Z,6.96
2017-04-14T05:42:03.916Z,6.91
2017-04-14T05:43:03.265Z,6.8
2017-04-14T05:44:03.550Z,6.88
2017-04-14T05:45:03.827Z,6.93
2017-04-14T05:46:03.498Z,7.09
2017-04-14T05:47:03.773Z,7.08
2017-04-14T05:48:03.844Z,7.06
2017-04-14T05:49:03.123Z,7.05
2017-04-14T05:50:03.712Z,7.05
2017-04-14T05:51:03.688Z,7.11
2017-04-14T05:52:03.051Z,7.12
2017-04-14T05:53:03.339Z,7.2
2017-04-14T05:54:03.314Z,7.14
2017-04-14T05:55:03.654Z,7.23
2017-04-14T05:56:02.962Z,7.3
2017-04-14T05:57:03.561Z,7.41
2017-04-14T05:58:03.223Z,7.42
2017-04-14T05:59:03.192Z,7.44
2017-04-14T06:00:03.497Z,7.44
2017-04-14T06:01:03.462Z,7.48
2017-04-14T06:02:03.147Z,7.42
2017-04-14T06:03:03.116Z,7.56
2017-04-14T06:04:03.403Z,7.47
2017-04-14T06:05:03.057Z,7.57
2017-04-14T06:06:03.033Z,7.53
2017-04-14T06:07:03.015Z,7.45
2017-04-14T06:08:03.333Z,7.45
2017-04-14T06:09:02.662Z,7.3
2017-04-14T06:10:02.645Z,7.47
2017-04-14T06:11:02.614Z,7.45
2017-04-14T06:12:03.253Z,7.47
2017-04-14T06:13:03.178Z,7.59
2017-04-14T06:14:03.195Z,7.75
2017-04-14T06:15:02.883Z,7.6
2017-04-14T06:16:02.865Z,7.72
2017-04-14T06:17:03.091Z,7.82
2017-04-14T06:18:02.876Z,7.73
2017-04-14T06:19:03.053Z,7.56
2017-04-14T06:20:02.812Z,7.55
2017-04-14T06:21:03.008Z,7.7
2017-04-14T06:22:02.683Z,7.73
2017-04-14T06:23:02.961Z,7.72
2017-04-14T06:24:02.743Z,7.79
2017-04-14T06:25:02.919Z,7.75
2017-04-14T06:26:02.696Z,7.75
2017-04-14T06:27:02.561Z,7.79
2017-04-14T06:28:02.645Z,7.76
2017-04-14T06:29:02.833Z,7.9
2017-04-14T06:30:02.504Z,8.01
2017-04-14T06:31:02.169Z,7.86
2017-04-14T06:32:02.774Z,7.9
2017-04-14T06:33:02.446Z,7.96
2017-04-14T06:34:02.763Z,7.86
2017-04-14T06:35:02.714Z,7.96
2017-04-14T06:36:02.683Z,7.94
2017-04-14T06:37:02.662Z,8.07
2017-04-14T06:38:02.635Z,8.04
2017-04-14T06:39:02.615Z,8.07
2017-04-14T06:40:01.986Z,8.16
2017-04-14T06:41:02.323Z,8.29
2017-04-14T06:42:02.574Z,8.32
2017-04-14T06:43:02.524Z,8.32
2017-04-14T06:44:02.196Z,8.52
2017-04-14T06:45:02.185Z,8.19
2017-04-14T06:46:01.939Z,8.15
2017-04-14T06:47:01.818Z,8.11
2017-04-14T06:48:02.432Z,8.29
2017-04-14T06:49:02.394Z,8.37
2017-04-14T06:50:02.065Z,8.52
2017-04-14T06:51:02.361Z,8.9
2017-04-14T06:52:01.709Z,9.29
2017-04-14T06:53:02.312Z,9.52
2017-04-14T06:54:02.298Z,9.9
2017-04-14T06:55:02.284Z,10.19
2017-04-14T06:56:02.344Z,10.55
2017-04-14T06:57:02.328Z,10.72
2017-04-14T06:58:02.358Z,11
2017-04-14T06:59:01.887Z,10.84
2017-04-14T07:00:02.202Z,11.31
2017-04-14T07:01:01.896Z,11.68
2017-04-14T07:02:02.155Z,12.31
2017-04-14T07:03:02.236Z,12.83
2017-04-14T07:04:01.825Z,13.29
2017-04-14T07:05:02.124Z,13.22
2017-04-14T07:06:02.275Z,13.42
2017-04-14T07:07:02.206Z,13.08
2017-04-14T07:08:01.756Z,13.71
2017-04-14T07:09:02.102Z,14.17
2017-04-14T07:10:01.718Z,14.65
2017-04-14T07:11:02.173Z,14.68
2017-04-14T07:12:02.058Z,14.11
2017-04-14T07:13:01.975Z,13.56
2017-04-14T07:14:01.651Z,12.97
2017-04-14T07:15:01.651Z,12.35
2017-04-14T07:16:01.926Z,11.84
2017-04-14T07:17:01.305Z,11.31
2017-04-14T07:18:01.926Z,11.08
2017-04-14T07:19:01.573Z,11
2017-04-14T07:20:01.576Z,10.93
2017-04-14T07:21:01.842Z,10.77
2017-04-14T07:22:01.529Z,10.48
2017-04-14T07:23:01.492Z,10.55
2017-04-14T07:24:01.795Z,10.55
2017-04-14T07:25:01.771Z,9.89
2017-04-14T07:26:01.771Z,9.56
2017-04-14T07:27:01.734Z,9.67
2017-04-14T07:28:01.796Z,9.82
2017-04-14T07:29:01.695Z,9.46
2017-04-14T07:30:01.692Z,9.38
2017-04-14T07:31:01.672Z,9.42
2017-04-14T07:32:01.741Z,9.27
2017-04-14T07:33:01.642Z,9.4
2017-04-14T07:34:01.608Z,9.49
2017-04-14T07:35:01.578Z,9.45
2017-04-14T07:36:01.681Z,9.38
2017-04-14T07:37:01.550Z,9.49
2017-04-14T07:38:01.234Z,9.45
2017-04-14T07:39:01.198Z,9.45
2017-04-14T07:40:01.493Z,9.35
2017-04-14T07:41:01.564Z,9.42
2017-04-14T07:42:01.146Z,9.29
2017-04-14T07:43:01.113Z,9.28
2017-04-14T07:44:00.822Z,9.24
2017-04-14T07:45:01.093Z,9.1
2017-04-14T07:46:01.523Z,9.05
2017-04-14T07:47:01.046Z,8.93
2017-04-14T07:48:01.132Z,9.09
2017-04-14T07:49:00.695Z,9.13
2017-04-14T07:50:01.291Z,9.31
2017-04-14T07:51:00.970Z,9.43
2017-04-14T07:52:01.314Z,9.45
2017-04-14T07:53:01.234Z,9.62
2017-04-14T07:54:00.889Z,9.47
2017-04-14T07:55:00.882Z,9.4
2017-04-14T07:56:01.205Z,9.24
2017-04-14T07:57:00.862Z,9.17
2017-04-14T07:58:01.203Z,9.09
2017-04-14T07:59:00.790Z,9.02
2017-04-14T08:00:01.082Z,9.05
2017-04-14T08:01:01.086Z,9.17
2017-04-14T08:02:01.073Z,9.21
2017-04-14T08:03:01.039Z,9.14
2017-04-14T08:04:01.062Z,9.19
2017-04-14T08:05:00.694Z,9.21
2017-04-14T08:06:00.796Z,9.05
2017-04-14T08:07:00.634Z,9.05
2017-04-14T08:08:00.663Z,9.19
2017-04-14T08:09:00.904Z,9.27
2017-04-14T08:10:00.329Z,9.17
2017-04-14T08:11:00.584Z,9.16
2017-04-14T08:12:00.606Z,9.34
2017-04-14T08:13:00.500Z,9.29
2017-04-14T08:14:00.892Z,9.34
2017-04-14T08:15:00.473Z,9.38
2017-04-14T08:16:00.583Z,9.47
2017-04-14T08:17:00.428Z,9.43
2017-04-14T08:18:00.812Z,9.56
2017-04-14T08:19:00.380Z,9.53
2017-04-14T08:20:00.366Z,9.52
2017-04-14T08:21:00.474Z,9.56
2017-04-14T08:22:00.756Z,9.64
2017-04-14T08:23:00.694Z,9.75
2017-04-14T08:24:00.583Z,9.78
2017-04-14T08:25:00.269Z,9.71
2017-04-14T08:26:00.547Z,9.72
2017-04-14T08:27:00.223Z,9.78
2017-04-14T08:28:00.509Z,9.74
2017-04-14T08:29:00.195Z,9.68
2017-04-14T08:30:00.327Z,9.5
2017-04-14T08:31:00.326Z,9.61
2017-04-14T08:32:00.423Z,9.75
2017-04-14T08:33:00.483Z,9.72
2017-04-14T08:34:00.076Z,9.82
2017-04-14T08:35:00.364Z,9.58
2017-04-14T08:36:00.125Z,9.68
2017-04-14T08:37:00.327Z,9.78
2017-04-14T08:37:59.986Z,9.74
2017-04-14T08:39:00.448Z,9.68
2017-04-14T08:40:00.275Z,9.83
2017-04-14T08:41:00.327Z,9.93
2017-04-14T08:42:00.209Z,10.01
2017-04-14T08:43:00.214Z,10.08
2017-04-14T08:44:00.175Z,9.93
2017-04-14T08:45:00.393Z,9.75
2017-04-14T08:46:00.116Z,9.83
2017-04-14T08:46:59.825Z,9.71
2017-04-14T08:48:00.207Z,9.72
2017-04-14T08:49:00.176Z,9.8
2017-04-14T08:50:00.032Z,9.87
2017-04-14T08:51:00.015Z,9.83
2017-04-14T08:52:00.012Z,10.04
2017-04-14T08:53:00.112Z,9.97
2017-04-14T08:53:59.984Z,10.15
2017-04-14T08:54:59.960Z,10.13
2017-04-14T08:55:59.295Z,10.07
2017-04-14T08:56:59.603Z,10.1
2017-04-14T08:57:59.873Z,10.01
2017-04-14T08:58:59.842Z,10.13
2017-04-14T08:59:59.823Z,10.26
2017-04-14T09:00:59.826Z,10.25
2017-04-14T09:01:59.783Z,10.34
2017-04-14T09:02:59.784Z,10.44
2017-04-14T09:03:59.764Z,10.52
2017-04-14T09:04:59.725Z,10.59
2017-04-14T09:05:59.095Z,10.62
2017-04-14T09:06:59.700Z,10.43
2017-04-14T09:07:59.595Z,10.43
2017-04-14T09:08:59.340Z,10.43
2017-04-14T09:09:59.313Z,10.34
2017-04-14T09:10:59.610Z,10.36
2017-04-14T09:11:59.589Z,10.4
2017-04-14T09:12:59.567Z,10.53
2017-04-14T09:13:58.993Z,10.56
2017-04-14T09:14:59.543Z,10.36
2017-04-14T09:15:59.605Z,10.41
2017-04-14T09:16:59.183Z,10.4
2017-04-14T09:17:59.171Z,10.4
2017-04-14T09:18:59.164Z,10.25
2017-04-14T09:19:59.433Z,10.22
2017-04-14T09:20:59.098Z,10.28
2017-04-14T09:21:59.392Z,10.38
2017-04-14T09:22:59.051Z,10.34
2017-04-14T09:23:59.337Z,10.3
2017-04-14T09:24:59.330Z,10.3
2017-04-14T09:25:59.314Z,10.34
2017-04-14T09:26:59.282Z,10.38
2017-04-14T09:27:59.246Z,10.43
2017-04-14T09:28:59.242Z,10.44
2017-04-14T09:29:58.923Z,10.48
2017-04-14T09:30:59.223Z,10.59
2017-04-14T09:31:59.179Z,10.66
2017-04-14T09:32:59.164Z,10.67
2017-04-14T09:33:59.166Z,10.67
2017-04-14T09:34:58.524Z,10.78
2017-04-14T09:35:59.038Z,10.53
2017-04-14T09:36:59.103Z,10.47
2017-04-14T09:37:58.541Z,10.4
2017-04-14T09:38:58.734Z,10.41
2017-04-14T09:39:58.764Z,10.44
2017-04-14T09:40:58.996Z,10.59
2017-04-14T09:41:58.967Z,10.56
2017-04-14T09:42:58.693Z,10.55
2017-04-14T09:43:58.378Z,10.52
2017-04-14T09:44:58.710Z,10.56
2017-04-14T09:45:58.889Z,10.43
2017-04-14T09:46:58.903Z,10.3
2017-04-14T09:47:58.254Z,10.29
2017-04-14T09:48:58.837Z,10.43
2017-04-14T09:49:58.813Z,10.47
2017-04-14T09:50:58.693Z,10.56
2017-04-14T09:51:58.263Z,10.69
2017-04-14T09:52:58.459Z,10.74
2017-04-14T09:53:58.417Z,10.64
2017-04-14T09:54:58.394Z,10.53
2017-04-14T09:55:58.695Z,10.33
2017-04-14T09:56:58.394Z,10.16
2017-04-14T09:57:58.645Z,10.22
2017-04-14T09:58:58.623Z,10.21
2017-04-14T09:59:58.325Z,10.26
2017-04-14T10:00:58.277Z,10.4
2017-04-14T10:01:58.576Z,10.52
2017-04-14T10:02:58.543Z,10.41
2017-04-14T10:03:57.945Z,10.44
2017-04-14T10:04:57.891Z,10.47
2017-04-14T10:05:57.982Z,10.56
2017-04-14T10:06:58.469Z,10.66
2017-04-14T10:07:58.445Z,10.74
2017-04-14T10:08:57.807Z,10.78
2017-04-14T10:09:57.803Z,10.77
2017-04-14T10:10:58.134Z,10.66
2017-04-14T10:11:58.354Z,10.69
2017-04-14T10:12:58.124Z,10.67
2017-04-14T10:13:58.328Z,10.59
2017-04-14T10:14:58.004Z,10.52
2017-04-14T10:15:58.283Z,10.56
2017-04-14T10:16:58.255Z,10.57
2017-04-14T10:17:57.943Z,10.62
2017-04-14T10:18:58.214Z,10.69
2017-04-14T10:19:58.198Z,10.66
2017-04-14T10:20:58.186Z,10.52
2017-04-14T10:21:58.153Z,10.55
2017-04-14T10:22:58.143Z,10.53
2017-04-14T10:23:57.846Z,10.56
2017-04-14T10:24:58.118Z,10.53
2017-04-14T10:25:58.084Z,10.57
2017-04-14T10:26:58.105Z,10.63
2017-04-14T10:27:58.045Z,10.57
2017-04-14T10:28:58.028Z,10.72
2017-04-14T10:29:57.747Z,10.78
2017-04-14T10:30:57.778Z,10.84
2017-04-14T10:31:57.969Z,10.87
2017-04-14T10:32:57.654Z,10.93
2017-04-14T10:33:57.624Z,10.99
2017-04-14T10:34:57.895Z,10.87
2017-04-14T10:35:57.673Z,10.82
2017-04-14T10:36:57.553Z,10.63
2017-04-14T10:37:57.837Z,10.62
2017-04-14T10:38:57.836Z,10.62
2017-04-14T10:39:57.798Z,10.66
2017-04-14T10:40:57.471Z,10.67
2017-04-14T10:41:57.763Z,10.74
2017-04-14T10:42:57.730Z,10.81
2017-04-14T10:43:57.721Z,10.81
2017-04-14T10:44:57.716Z,10.85
2017-04-14T10:45:57.355Z,10.92
2017-04-14T10:46:57.647Z,10.87
2017-04-14T10:47:57.635Z,10.99
2017-04-14T10:48:57.633Z,10.89
2017-04-14T10:49:57.580Z,10.96
2017-04-14T10:50:57.626Z,10.87
2017-04-14T10:51:56.938Z,11.03
2017-04-14T10:52:57.532Z,11.15
2017-04-14T10:53:57.515Z,11.21
2017-04-14T10:54:57.505Z,11.18
2017-04-14T10:55:57.471Z,11.24
2017-04-14T10:56:57.455Z,11.32
2017-04-14T10:57:57.445Z,11.21
2017-04-14T10:58:57.436Z,11.24
2017-04-14T10:59:57.395Z,11.26
2017-04-14T11:00:57.407Z,11.2
2017-04-14T11:01:57.345Z,11.11
2017-04-14T11:02:57.345Z,11.26
2017-04-14T11:03:57.315Z,11.18
2017-04-14T11:04:57.294Z,11.32
2017-04-14T11:05:56.783Z,11.2
2017-04-14T11:06:57.237Z,11.23
2017-04-14T11:07:57.085Z,11.08
2017-04-14T11:08:56.596Z,11.21
2017-04-14T11:09:57.200Z,11.4
2017-04-14T11:10:57.163Z,11.46
2017-04-14T11:11:57.145Z,11.57
2017-04-14T11:12:56.820Z,11.57
2017-04-14T11:13:57.114Z,11.5
2017-04-14T11:14:57.095Z,11.64
2017-04-14T11:15:57.085Z,11.61
2017-04-14T11:16:57.054Z,11.48
2017-04-14T11:17:56.734Z,11.48
2017-04-14T11:18:56.737Z,11.57
2017-04-14T11:19:56.696Z,11.64
2017-04-14T11:20:56.655Z,11.56
2017-04-14T11:21:56.947Z,11.76
2017-04-14T11:22:56.630Z,11.83
2017-04-14T11:23:56.904Z,11.86
2017-04-14T11:24:56.890Z,11.86
2017-04-14T11:25:56.593Z,11.84
2017-04-14T11:26:56.864Z,11.79
2017-04-14T11:27:56.545Z,11.46
2017-04-14T11:28:56.807Z,11.43
2017-04-14T11:29:56.506Z,11.47
2017-04-14T11:30:56.465Z,11.6
2017-04-14T11:31:56.453Z,11.58
2017-04-14T11:32:56.431Z,11.56
2017-04-14T11:33:56.724Z,11.58
2017-04-14T11:34:56.731Z,11.5
2017-04-14T11:35:56.694Z,11.53
2017-04-14T11:36:56.670Z,11.6
2017-04-14T11:37:56.433Z,11.66
2017-04-14T11:38:56.615Z,11.71
2017-04-14T11:39:56.606Z,11.81
2017-04-14T11:40:56.586Z,11.81
2017-04-14T11:41:56.620Z,11.94
2017-04-14T11:42:56.237Z,11.69
2017-04-14T11:43:56.543Z,11.69
2017-04-14T11:44:56.492Z,11.83
2017-04-14T11:45:56.479Z,11.86
2017-04-14T11:46:56.174Z,11.9
2017-04-14T11:47:56.453Z,11.79
2017-04-14T11:48:56.121Z,11.56
2017-04-14T11:49:56.403Z,11.71
2017-04-14T11:50:56.392Z,11.78
2017-04-14T11:51:55.754Z,11.75
2017-04-14T11:52:56.356Z,11.81
2017-04-14T11:53:56.342Z,11.87
2017-04-14T11:54:55.993Z,11.75
2017-04-14T11:55:55.985Z,11.71
2017-04-14T11:56:55.990Z,11.75
2017-04-14T11:57:55.954Z,11.83
2017-04-14T11:58:56.228Z,11.83
2017-04-14T11:59:55.908Z,11.95
2017-04-14T12:00:56.192Z,11.87
2017-04-14T12:01:55.874Z,11.87
2017-04-14T12:02:56.161Z,11.95
2017-04-14T12:03:55.838Z,11.91
2017-04-14T12:04:56.125Z,12.03
2017-04-14T12:05:55.783Z,11.99
2017-04-14T12:06:55.768Z,12.23
2017-04-14T12:07:56.067Z,12.03
2017-04-14T12:08:56.042Z,12.02
2017-04-14T12:09:56.029Z,12.07
2017-04-14T12:10:56.006Z,12.2
2017-04-14T12:11:55.982Z,12.15
2017-04-14T12:12:55.963Z,12.23
2017-04-14T12:13:55.948Z,11.98
2017-04-14T12:14:55.924Z,11.87
2017-04-14T12:15:55.603Z,11.95
2017-04-14T12:16:55.886Z,12.05
2017-04-14T12:17:55.873Z,12.2
2017-04-14T12:18:55.568Z,12.32
2017-04-14T12:19:55.826Z,12.46
2017-04-14T12:20:55.510Z,12.53
2017-04-14T12:21:55.489Z,12.57
2017-04-14T12:22:55.773Z,12.64
2017-04-14T12:23:55.805Z,12.58
2017-04-14T12:24:55.725Z,12.45
2017-04-14T12:25:55.716Z,12.48
2017-04-14T12:26:55.700Z,12.55
2017-04-14T12:27:55.675Z,12.63
2017-04-14T12:28:55.676Z,12.71
2017-04-14T12:29:55.646Z,12.57
2017-04-14T12:30:55.631Z,12.32
2017-04-14T12:31:55.600Z,12.39
2017-04-14T12:32:55.598Z,12.4
2017-04-14T12:33:55.564Z,12.43
2017-04-14T12:34:55.584Z,12.37
2017-04-14T12:35:55.235Z,12.42
2017-04-14T12:36:55.510Z,12.5
2017-04-14T12:37:55.498Z,12.61
2017-04-14T12:38:55.490Z,12.64
2017-04-14T12:39:55.972Z,12.57
2017-04-14T12:40:55.853Z,12.55
2017-04-14T12:41:55.430Z,12.58
2017-04-14T12:42:55.096Z,12.57
2017-04-14T12:43:55.375Z,12.48
2017-04-14T12:44:55.374Z,12.4
2017-04-14T12:45:55.053Z,12.45
2017-04-14T12:46:55.341Z,12.52
2017-04-14T12:47:55.330Z,12.58
2017-04-14T12:48:55.297Z,12.49
2017-04-14T12:49:55.258Z,12.65
2017-04-14T12:50:54.936Z,12.6
2017-04-14T12:51:55.223Z,12.71
2017-04-14T12:52:54.906Z,12.68
2017-04-14T12:53:55.214Z,12.67
2017-04-14T12:54:54.863Z,12.67
2017-04-14T12:55:54.666Z,12.49
2017-04-14T12:56:55.139Z,12.52
2017-04-14T12:57:55.131Z,12.49
2017-04-14T12:58:55.132Z,12.48
2017-04-14T12:59:55.090Z,12.49
2017-04-14T13:00:55.064Z,12.43
2017-04-14T13:01:55.074Z,12.49
2017-04-14T13:02:55.030Z,12.55
2017-04-14T13:03:54.995Z,12.65
2017-04-14T13:04:54.993Z,12.64
2017-04-14T13:05:54.973Z,12.63
2017-04-14T13:06:54.944Z,12.67
2017-04-14T13:07:54.946Z,12.64
2017-04-14T13:08:54.911Z,12.61
2017-04-14T13:09:54.915Z,12.65
2017-04-14T13:10:54.892Z,12.71